sensor_id;sensor_type;location;lat;lon;timestamp;P1;durP1;ratioP1;P2;durP2;ratioP2
69083;SDS011;56185;48.526;9.044;2022-12-29T00:00:07;3.63;;;2.42;;
69083;SDS011;56185;48.526;9.044;2022-12-29T00:02:33;4.00;;;2.85;;
69083;SDS011;56185;48.526;9.044;2022-12-29T00:04:58;7.07;;;4.43;;
69083;SDS011;56185;48.526;9.044;2022-12-29T00:07:23;8.00;;;4.83;;
69083;SDS011;56185;48.526;9.044;2022-12-29T00:09:49;8.50;;;5.10;;
69083;SDS011;56185;48.526;9.044;2022-12-29T00:12:14;7.33;;;3.97;;
69083;SDS011;56185;48.526;9.044;2022-12-29T00:14:39;5.88;;;4.00;;
69083;SDS011;56185;48.526;9.044;2022-12-29T00:17:04;5.15;;;3.25;;
69083;SDS011;56185;48.526;9.044;2022-12-29T00:19:29;6.50;;;3.20;;
69083;SDS011;56185;48.526;9.044;2022-12-29T00:21:55;5.07;;;3.20;;
69083;SDS011;56185;48.526;9.044;2022-12-29T00:24:21;3.78;;;2.63;;
69083;SDS011;56185;48.526;9.044;2022-12-29T00:26:47;3.58;;;2.40;;
69083;SDS011;56185;48.526;9.044;2022-12-29T00:29:14;4.25;;;2.45;;
69083;SDS011;56185;48.526;9.044;2022-12-29T00:31:39;3.40;;;2.30;;
69083;SDS011;56185;48.526;9.044;2022-12-29T00:34:06;3.10;;;2.20;;
69083;SDS011;56185;48.526;9.044;2022-12-29T00:36:36;5.28;;;2.70;;
69083;SDS011;56185;48.526;9.044;2022-12-29T00:39:07;6.57;;;3.03;;
69083;SDS011;56185;48.526;9.044;2022-12-29T00:41:36;4.50;;;2.75;;
69083;SDS011;56185;48.526;9.044;2022-12-29T00:44:01;5.82;;;3.03;;
69083;SDS011;56185;48.526;9.044;2022-12-29T00:46:26;4.05;;;2.58;;
69083;SDS011;56185;48.526;9.044;2022-12-29T00:48:52;5.50;;;2.88;;
69083;SDS011;56185;48.526;9.044;2022-12-29T00:51:17;5.13;;;2.63;;
69083;SDS011;56185;48.526;9.044;2022-12-29T00:53:42;4.43;;;2.47;;
69083;SDS011;56185;48.526;9.044;2022-12-29T00:56:07;3.20;;;2.00;;
69083;SDS011;56185;48.526;9.044;2022-12-29T00:58:32;4.35;;;2.30;;
69083;SDS011;56185;48.526;9.044;2022-12-29T01:01:01;5.03;;;3.03;;
69083;SDS011;56185;48.526;9.044;2022-12-29T01:03:28;3.95;;;2.40;;
69083;SDS011;56185;48.526;9.044;2022-12-29T01:05:53;5.03;;;2.58;;
69083;SDS011;56185;48.526;9.044;2022-12-29T01:08:18;3.70;;;2.13;;
69083;SDS011;56185;48.526;9.044;2022-12-29T01:10:44;3.47;;;2.20;;
69083;SDS011;56185;48.526;9.044;2022-12-29T01:13:09;4.72;;;2.30;;
69083;SDS011;56185;48.526;9.044;2022-12-29T01:15:34;4.07;;;1.90;;
69083;SDS011;56185;48.526;9.044;2022-12-29T01:17:59;4.20;;;2.13;;
69083;SDS011;56185;48.526;9.044;2022-12-29T01:20:24;3.47;;;2.03;;
69083;SDS011;56185;48.526;9.044;2022-12-29T01:22:50;5.60;;;2.10;;
69083;SDS011;56185;48.526;9.044;2022-12-29T01:25:15;4.57;;;2.30;;
69083;SDS011;56185;48.526;9.044;2022-12-29T01:27:40;3.13;;;1.77;;
69083;SDS011;56185;48.526;9.044;2022-12-29T01:30:06;3.90;;;2.17;;
69083;SDS011;56185;48.526;9.044;2022-12-29T01:32:31;4.35;;;2.05;;
69083;SDS011;56185;48.526;9.044;2022-12-29T01:34:56;4.87;;;2.20;;
69083;SDS011;56185;48.526;9.044;2022-12-29T01:37:22;4.57;;;2.00;;
69083;SDS011;56185;48.526;9.044;2022-12-29T01:39:47;4.93;;;2.47;;
69083;SDS011;56185;48.526;9.044;2022-12-29T01:42:16;7.30;;;2.10;;
69083;SDS011;56185;48.526;9.044;2022-12-29T01:47:26;3.53;;;2.40;;
69083;SDS011;56185;48.526;9.044;2022-12-29T01:49:57;6.32;;;2.30;;
69083;SDS011;56185;48.526;9.044;2022-12-29T01:52:26;3.88;;;2.30;;
69083;SDS011;56185;48.526;9.044;2022-12-29T01:54:56;3.67;;;2.08;;
69083;SDS011;56185;48.526;9.044;2022-12-29T01:57:25;4.32;;;2.30;;
69083;SDS011;56185;48.526;9.044;2022-12-29T01:59:55;2.97;;;2.05;;
69083;SDS011;56185;48.526;9.044;2022-12-29T02:02:24;4.50;;;2.50;;
69083;SDS011;56185;48.526;9.044;2022-12-29T02:04:50;2.28;;;1.83;;
69083;SDS011;56185;48.526;9.044;2022-12-29T02:07:18;2.53;;;1.70;;
69083;SDS011;56185;48.526;9.044;2022-12-29T02:09:49;4.05;;;2.03;;
69083;SDS011;56185;48.526;9.044;2022-12-29T02:12:16;5.25;;;1.90;;
69083;SDS011;56185;48.526;9.044;2022-12-29T02:14:43;4.03;;;1.90;;
69083;SDS011;56185;48.526;9.044;2022-12-29T02:22:32;2.33;;;1.60;;
69083;SDS011;56185;48.526;9.044;2022-12-29T02:30:49;4.50;;;1.50;;
69083;SDS011;56185;48.526;9.044;2022-12-29T02:33:34;3.08;;;1.45;;
69083;SDS011;56185;48.526;9.044;2022-12-29T02:36:31;5.50;;;1.70;;
69083;SDS011;56185;48.526;9.044;2022-12-29T02:39:13;2.80;;;1.77;;
69083;SDS011;56185;48.526;9.044;2022-12-29T02:47:00;2.60;;;1.20;;
69083;SDS011;56185;48.526;9.044;2022-12-29T02:50:03;4.78;;;1.65;;
69083;SDS011;56185;48.526;9.044;2022-12-29T02:53:08;3.22;;;1.42;;
69083;SDS011;56185;48.526;9.044;2022-12-29T02:55:30;2.58;;;1.35;;
69083;SDS011;56185;48.526;9.044;2022-12-29T03:00:33;1.50;;;1.10;;
69083;SDS011;56185;48.526;9.044;2022-12-29T03:08:43;2.78;;;1.25;;
69083;SDS011;56185;48.526;9.044;2022-12-29T03:11:14;3.33;;;1.40;;
69083;SDS011;56185;48.526;9.044;2022-12-29T03:13:44;3.30;;;1.50;;
69083;SDS011;56185;48.526;9.044;2022-12-29T03:16:21;3.38;;;1.50;;
69083;SDS011;56185;48.526;9.044;2022-12-29T03:19:00;3.45;;;1.60;;
69083;SDS011;56185;48.526;9.044;2022-12-29T03:24:06;3.33;;;1.45;;
69083;SDS011;56185;48.526;9.044;2022-12-29T03:26:31;2.47;;;1.45;;
69083;SDS011;56185;48.526;9.044;2022-12-29T03:28:57;6.33;;;1.50;;
69083;SDS011;56185;48.526;9.044;2022-12-29T03:31:22;2.55;;;1.52;;
69083;SDS011;56185;48.526;9.044;2022-12-29T03:33:49;1.77;;;1.08;;
69083;SDS011;56185;48.526;9.044;2022-12-29T03:36:17;2.38;;;1.23;;
69083;SDS011;56185;48.526;9.044;2022-12-29T03:38:53;7.47;;;1.63;;
69083;SDS011;56185;48.526;9.044;2022-12-29T03:41:30;2.85;;;1.50;;
69083;SDS011;56185;48.526;9.044;2022-12-29T03:43:56;2.42;;;1.20;;
69083;SDS011;56185;48.526;9.044;2022-12-29T03:46:21;1.73;;;1.20;;
69083;SDS011;56185;48.526;9.044;2022-12-29T03:48:47;2.40;;;1.30;;
69083;SDS011;56185;48.526;9.044;2022-12-29T03:51:12;2.37;;;1.43;;
69083;SDS011;56185;48.526;9.044;2022-12-29T03:53:37;2.70;;;1.35;;
69083;SDS011;56185;48.526;9.044;2022-12-29T03:56:02;4.63;;;1.50;;
69083;SDS011;56185;48.526;9.044;2022-12-29T03:58:28;6.18;;;1.45;;
69083;SDS011;56185;48.526;9.044;2022-12-29T04:00:53;3.38;;;1.52;;
69083;SDS011;56185;48.526;9.044;2022-12-29T04:03:18;1.63;;;1.20;;
69083;SDS011;56185;48.526;9.044;2022-12-29T04:05:44;4.72;;;1.48;;
69083;SDS011;56185;48.526;9.044;2022-12-29T04:08:09;2.27;;;1.30;;
69083;SDS011;56185;48.526;9.044;2022-12-29T04:10:34;4.45;;;1.40;;
69083;SDS011;56185;48.526;9.044;2022-12-29T04:12:59;3.60;;;1.52;;
69083;SDS011;56185;48.526;9.044;2022-12-29T04:15:25;2.88;;;1.45;;
69083;SDS011;56185;48.526;9.044;2022-12-29T04:17:50;2.90;;;1.70;;
69083;SDS011;56185;48.526;9.044;2022-12-29T04:20:15;3.70;;;1.97;;
69083;SDS011;56185;48.526;9.044;2022-12-29T04:22:40;1.92;;;1.20;;
69083;SDS011;56185;48.526;9.044;2022-12-29T04:25:06;3.43;;;1.53;;
69083;SDS011;56185;48.526;9.044;2022-12-29T04:27:31;5.05;;;1.75;;
69083;SDS011;56185;48.526;9.044;2022-12-29T04:29:57;3.23;;;1.47;;
69083;SDS011;56185;48.526;9.044;2022-12-29T04:32:22;3.50;;;1.50;;
69083;SDS011;56185;48.526;9.044;2022-12-29T04:34:47;3.00;;;1.30;;
69083;SDS011;56185;48.526;9.044;2022-12-29T04:37:12;6.23;;;1.60;;
69083;SDS011;56185;48.526;9.044;2022-12-29T04:39:38;3.10;;;1.42;;
69083;SDS011;56185;48.526;9.044;2022-12-29T04:42:03;2.40;;;1.47;;
69083;SDS011;56185;48.526;9.044;2022-12-29T04:44:28;3.08;;;1.27;;
69083;SDS011;56185;48.526;9.044;2022-12-29T04:46:53;2.00;;;1.30;;
69083;SDS011;56185;48.526;9.044;2022-12-29T04:49:19;3.27;;;1.37;;
69083;SDS011;56185;48.526;9.044;2022-12-29T04:51:44;2.13;;;1.30;;
69083;SDS011;56185;48.526;9.044;2022-12-29T04:54:09;3.60;;;1.33;;
69083;SDS011;56185;48.526;9.044;2022-12-29T04:56:34;2.97;;;1.87;;
69083;SDS011;56185;48.526;9.044;2022-12-29T04:58:59;2.60;;;1.50;;
69083;SDS011;56185;48.526;9.044;2022-12-29T05:01:25;3.30;;;1.40;;
69083;SDS011;56185;48.526;9.044;2022-12-29T05:03:50;3.03;;;1.40;;
69083;SDS011;56185;48.526;9.044;2022-12-29T05:06:16;2.65;;;1.35;;
69083;SDS011;56185;48.526;9.044;2022-12-29T05:08:41;4.67;;;1.60;;
69083;SDS011;56185;48.526;9.044;2022-12-29T05:11:06;4.18;;;1.45;;
69083;SDS011;56185;48.526;9.044;2022-12-29T05:13:31;3.57;;;1.30;;
69083;SDS011;56185;48.526;9.044;2022-12-29T05:15:57;2.43;;;1.50;;
69083;SDS011;56185;48.526;9.044;2022-12-29T05:18:22;2.23;;;1.47;;
69083;SDS011;56185;48.526;9.044;2022-12-29T05:20:47;2.00;;;1.40;;
69083;SDS011;56185;48.526;9.044;2022-12-29T05:23:12;3.15;;;1.48;;
69083;SDS011;56185;48.526;9.044;2022-12-29T05:25:38;3.85;;;1.63;;
69083;SDS011;56185;48.526;9.044;2022-12-29T05:28:03;5.53;;;1.77;;
69083;SDS011;56185;48.526;9.044;2022-12-29T05:30:29;2.72;;;1.80;;
69083;SDS011;56185;48.526;9.044;2022-12-29T05:32:54;3.27;;;1.37;;
69083;SDS011;56185;48.526;9.044;2022-12-29T05:35:19;4.40;;;1.53;;
69083;SDS011;56185;48.526;9.044;2022-12-29T05:37:44;4.63;;;1.57;;
69083;SDS011;56185;48.526;9.044;2022-12-29T05:40:10;4.97;;;1.80;;
69083;SDS011;56185;48.526;9.044;2022-12-29T05:42:36;2.78;;;1.63;;
69083;SDS011;56185;48.526;9.044;2022-12-29T05:45:01;4.05;;;1.50;;
69083;SDS011;56185;48.526;9.044;2022-12-29T05:47:26;3.92;;;2.25;;
69083;SDS011;56185;48.526;9.044;2022-12-29T05:49:51;4.70;;;2.80;;
69083;SDS011;56185;48.526;9.044;2022-12-29T05:52:17;3.85;;;2.30;;
69083;SDS011;56185;48.526;9.044;2022-12-29T05:54:42;4.03;;;1.90;;
69083;SDS011;56185;48.526;9.044;2022-12-29T05:57:07;4.10;;;1.93;;
69083;SDS011;56185;48.526;9.044;2022-12-29T05:59:33;4.10;;;2.50;;
69083;SDS011;56185;48.526;9.044;2022-12-29T06:01:58;3.33;;;1.87;;
69083;SDS011;56185;48.526;9.044;2022-12-29T06:04:23;2.87;;;1.57;;
69083;SDS011;56185;48.526;9.044;2022-12-29T06:06:48;2.30;;;1.50;;
69083;SDS011;56185;48.526;9.044;2022-12-29T06:09:14;3.20;;;1.70;;
69083;SDS011;56185;48.526;9.044;2022-12-29T06:11:39;2.20;;;1.50;;
69083;SDS011;56185;48.526;9.044;2022-12-29T06:14:04;2.60;;;1.43;;
69083;SDS011;56185;48.526;9.044;2022-12-29T06:16:29;2.53;;;1.40;;
69083;SDS011;56185;48.526;9.044;2022-12-29T06:18:55;2.20;;;1.50;;
69083;SDS011;56185;48.526;9.044;2022-12-29T06:21:20;3.17;;;1.70;;
69083;SDS011;56185;48.526;9.044;2022-12-29T06:23:45;3.33;;;1.52;;
69083;SDS011;56185;48.526;9.044;2022-12-29T06:26:10;2.73;;;1.73;;
69083;SDS011;56185;48.526;9.044;2022-12-29T06:28:36;2.43;;;1.63;;
69083;SDS011;56185;48.526;9.044;2022-12-29T06:31:01;2.80;;;1.60;;
69083;SDS011;56185;48.526;9.044;2022-12-29T06:33:26;2.67;;;1.52;;
69083;SDS011;56185;48.526;9.044;2022-12-29T06:35:51;4.40;;;1.80;;
69083;SDS011;56185;48.526;9.044;2022-12-29T06:38:16;2.43;;;1.20;;
69083;SDS011;56185;48.526;9.044;2022-12-29T06:40:42;4.18;;;1.20;;
69083;SDS011;56185;48.526;9.044;2022-12-29T06:43:08;3.35;;;1.67;;
69083;SDS011;56185;48.526;9.044;2022-12-29T06:45:33;2.63;;;1.37;;
69083;SDS011;56185;48.526;9.044;2022-12-29T06:47:58;3.28;;;1.67;;
69083;SDS011;56185;48.526;9.044;2022-12-29T06:50:24;5.17;;;1.60;;
69083;SDS011;56185;48.526;9.044;2022-12-29T06:52:49;2.95;;;1.67;;
69083;SDS011;56185;48.526;9.044;2022-12-29T06:55:17;4.57;;;1.45;;
69083;SDS011;56185;48.526;9.044;2022-12-29T06:57:42;4.07;;;1.65;;
69083;SDS011;56185;48.526;9.044;2022-12-29T07:00:08;1.67;;;1.45;;
69083;SDS011;56185;48.526;9.044;2022-12-29T07:02:33;3.53;;;1.50;;
69083;SDS011;56185;48.526;9.044;2022-12-29T07:04:59;2.95;;;1.30;;
69083;SDS011;56185;48.526;9.044;2022-12-29T07:07:24;2.90;;;1.40;;
69083;SDS011;56185;48.526;9.044;2022-12-29T07:09:49;3.03;;;1.52;;
69083;SDS011;56185;48.526;9.044;2022-12-29T07:12:14;5.33;;;1.73;;
69083;SDS011;56185;48.526;9.044;2022-12-29T07:14:40;2.10;;;1.42;;
69083;SDS011;56185;48.526;9.044;2022-12-29T07:17:05;3.63;;;1.65;;
69083;SDS011;56185;48.526;9.044;2022-12-29T07:19:31;3.13;;;1.88;;
69083;SDS011;56185;48.526;9.044;2022-12-29T07:21:56;2.97;;;2.00;;
69083;SDS011;56185;48.526;9.044;2022-12-29T07:24:21;4.07;;;1.80;;
69083;SDS011;56185;48.526;9.044;2022-12-29T07:26:47;5.07;;;2.35;;
69083;SDS011;56185;48.526;9.044;2022-12-29T07:29:12;2.50;;;1.77;;
69083;SDS011;56185;48.526;9.044;2022-12-29T07:31:37;5.63;;;1.93;;
69083;SDS011;56185;48.526;9.044;2022-12-29T07:34:03;3.88;;;1.70;;
69083;SDS011;56185;48.526;9.044;2022-12-29T07:36:28;4.80;;;1.50;;
69083;SDS011;56185;48.526;9.044;2022-12-29T07:38:53;3.55;;;1.40;;
69083;SDS011;56185;48.526;9.044;2022-12-29T07:41:18;2.77;;;1.40;;
69083;SDS011;56185;48.526;9.044;2022-12-29T07:43:46;2.47;;;1.30;;
69083;SDS011;56185;48.526;9.044;2022-12-29T07:46:12;2.47;;;1.63;;
69083;SDS011;56185;48.526;9.044;2022-12-29T07:48:37;2.70;;;1.50;;
69083;SDS011;56185;48.526;9.044;2022-12-29T07:51:02;2.67;;;1.80;;
69083;SDS011;56185;48.526;9.044;2022-12-29T07:53:28;2.08;;;1.40;;
69083;SDS011;56185;48.526;9.044;2022-12-29T07:55:53;2.60;;;1.67;;
69083;SDS011;56185;48.526;9.044;2022-12-29T07:58:18;2.00;;;1.30;;
69083;SDS011;56185;48.526;9.044;2022-12-29T08:00:43;2.40;;;1.50;;
69083;SDS011;56185;48.526;9.044;2022-12-29T08:03:09;2.17;;;1.48;;
69083;SDS011;56185;48.526;9.044;2022-12-29T08:05:34;4.23;;;1.70;;
69083;SDS011;56185;48.526;9.044;2022-12-29T08:07:59;3.08;;;1.52;;
69083;SDS011;56185;48.526;9.044;2022-12-29T08:10:25;2.63;;;1.50;;
69083;SDS011;56185;48.526;9.044;2022-12-29T08:12:50;2.13;;;1.40;;
69083;SDS011;56185;48.526;9.044;2022-12-29T08:15:15;3.85;;;1.70;;
69083;SDS011;56185;48.526;9.044;2022-12-29T08:17:41;4.45;;;1.63;;
69083;SDS011;56185;48.526;9.044;2022-12-29T08:20:06;4.65;;;1.55;;
69083;SDS011;56185;48.526;9.044;2022-12-29T08:22:32;3.65;;;1.63;;
69083;SDS011;56185;48.526;9.044;2022-12-29T08:24:57;2.92;;;1.40;;
69083;SDS011;56185;48.526;9.044;2022-12-29T08:27:23;3.83;;;1.73;;
69083;SDS011;56185;48.526;9.044;2022-12-29T08:29:48;3.53;;;1.67;;
69083;SDS011;56185;48.526;9.044;2022-12-29T08:32:13;2.83;;;1.70;;
69083;SDS011;56185;48.526;9.044;2022-12-29T08:34:39;2.33;;;1.20;;
69083;SDS011;56185;48.526;9.044;2022-12-29T08:37:04;3.17;;;1.40;;
69083;SDS011;56185;48.526;9.044;2022-12-29T08:39:29;2.67;;;1.80;;
69083;SDS011;56185;48.526;9.044;2022-12-29T08:41:55;4.60;;;2.05;;
69083;SDS011;56185;48.526;9.044;2022-12-29T08:44:20;4.18;;;1.65;;
69083;SDS011;56185;48.526;9.044;2022-12-29T08:46:45;4.38;;;2.60;;
69083;SDS011;56185;48.526;9.044;2022-12-29T08:49:11;2.73;;;1.47;;
69083;SDS011;56185;48.526;9.044;2022-12-29T08:51:36;4.43;;;1.50;;
69083;SDS011;56185;48.526;9.044;2022-12-29T08:54:01;3.88;;;1.52;;
69083;SDS011;56185;48.526;9.044;2022-12-29T08:56:27;2.23;;;1.50;;
69083;SDS011;56185;48.526;9.044;2022-12-29T08:58:52;1.90;;;1.20;;
69083;SDS011;56185;48.526;9.044;2022-12-29T09:01:18;2.72;;;1.40;;
69083;SDS011;56185;48.526;9.044;2022-12-29T09:03:44;4.18;;;1.58;;
69083;SDS011;56185;48.526;9.044;2022-12-29T09:06:09;2.72;;;1.45;;
69083;SDS011;56185;48.526;9.044;2022-12-29T09:08:35;3.28;;;1.70;;
69083;SDS011;56185;48.526;9.044;2022-12-29T09:11:08;4.80;;;1.48;;
69083;SDS011;56185;48.526;9.044;2022-12-29T09:13:39;5.55;;;1.92;;
69083;SDS011;56185;48.526;9.044;2022-12-29T09:16:04;3.92;;;1.65;;
69083;SDS011;56185;48.526;9.044;2022-12-29T09:18:30;4.18;;;1.65;;
69083;SDS011;56185;48.526;9.044;2022-12-29T09:20:59;4.70;;;1.50;;
69083;SDS011;56185;48.526;9.044;2022-12-29T09:26:01;3.08;;;1.30;;
69083;SDS011;56185;48.526;9.044;2022-12-29T09:28:26;3.08;;;1.60;;
69083;SDS011;56185;48.526;9.044;2022-12-29T09:30:52;4.50;;;1.70;;
69083;SDS011;56185;48.526;9.044;2022-12-29T09:33:17;3.58;;;1.65;;
69083;SDS011;56185;48.526;9.044;2022-12-29T09:35:43;3.40;;;1.48;;
69083;SDS011;56185;48.526;9.044;2022-12-29T09:38:09;2.28;;;1.33;;
69083;SDS011;56185;48.526;9.044;2022-12-29T09:40:35;2.50;;;1.50;;
69083;SDS011;56185;48.526;9.044;2022-12-29T09:43:05;2.17;;;1.33;;
69083;SDS011;56185;48.526;9.044;2022-12-29T09:48:37;3.30;;;1.15;;
69083;SDS011;56185;48.526;9.044;2022-12-29T09:51:16;2.72;;;1.35;;
69083;SDS011;56185;48.526;9.044;2022-12-29T09:53:51;3.00;;;1.75;;
69083;SDS011;56185;48.526;9.044;2022-12-29T09:56:21;3.13;;;1.60;;
69083;SDS011;56185;48.526;9.044;2022-12-29T10:01:46;2.53;;;1.40;;
69083;SDS011;56185;48.526;9.044;2022-12-29T10:04:18;3.30;;;1.40;;
69083;SDS011;56185;48.526;9.044;2022-12-29T10:06:50;2.38;;;1.50;;
69083;SDS011;56185;48.526;9.044;2022-12-29T10:09:23;2.55;;;1.42;;
69083;SDS011;56185;48.526;9.044;2022-12-29T10:12:02;4.53;;;1.70;;
69083;SDS011;56185;48.526;9.044;2022-12-29T10:20:31;3.00;;;1.70;;
69083;SDS011;56185;48.526;9.044;2022-12-29T10:25:29;3.70;;;1.75;;
69083;SDS011;56185;48.526;9.044;2022-12-29T10:28:01;4.90;;;1.88;;
69083;SDS011;56185;48.526;9.044;2022-12-29T10:30:31;2.90;;;1.90;;
69083;SDS011;56185;48.526;9.044;2022-12-29T10:32:58;5.57;;;2.30;;
69083;SDS011;56185;48.526;9.044;2022-12-29T10:35:31;4.20;;;1.80;;
69083;SDS011;56185;48.526;9.044;2022-12-29T10:38:03;2.78;;;1.70;;
69083;SDS011;56185;48.526;9.044;2022-12-29T10:40:53;4.82;;;1.73;;
69083;SDS011;56185;48.526;9.044;2022-12-29T10:44:16;3.47;;;1.52;;
69083;SDS011;56185;48.526;9.044;2022-12-29T10:46:35;4.07;;;1.73;;
69083;SDS011;56185;48.526;9.044;2022-12-29T10:49:02;3.45;;;1.48;;
69083;SDS011;56185;48.526;9.044;2022-12-29T10:51:30;3.45;;;1.60;;
69083;SDS011;56185;48.526;9.044;2022-12-29T10:56:39;5.28;;;2.28;;
69083;SDS011;56185;48.526;9.044;2022-12-29T10:59:13;4.22;;;1.70;;
69083;SDS011;56185;48.526;9.044;2022-12-29T11:01:43;2.53;;;1.50;;
69083;SDS011;56185;48.526;9.044;2022-12-29T11:04:33;4.88;;;1.95;;
69083;SDS011;56185;48.526;9.044;2022-12-29T11:07:00;2.88;;;1.80;;
69083;SDS011;56185;48.526;9.044;2022-12-29T11:09:30;2.92;;;1.88;;
69083;SDS011;56185;48.526;9.044;2022-12-29T11:11:57;4.07;;;1.58;;
69083;SDS011;56185;48.526;9.044;2022-12-29T11:14:27;3.78;;;1.58;;
69083;SDS011;56185;48.526;9.044;2022-12-29T11:16:57;4.50;;;1.40;;
69083;SDS011;56185;48.526;9.044;2022-12-29T11:19:28;3.35;;;1.63;;
69083;SDS011;56185;48.526;9.044;2022-12-29T11:21:54;4.93;;;1.65;;
69083;SDS011;56185;48.526;9.044;2022-12-29T11:26:50;4.10;;;1.75;;
69083;SDS011;56185;48.526;9.044;2022-12-29T11:30:00;2.78;;;1.35;;
69083;SDS011;56185;48.526;9.044;2022-12-29T11:32:11;2.85;;;1.50;;
69083;SDS011;56185;48.526;9.044;2022-12-29T11:34:38;3.72;;;1.70;;
69083;SDS011;56185;48.526;9.044;2022-12-29T11:37:06;3.40;;;1.63;;
69083;SDS011;56185;48.526;9.044;2022-12-29T11:43:11;3.92;;;1.50;;
69083;SDS011;56185;48.526;9.044;2022-12-29T11:45:18;2.35;;;1.35;;
69083;SDS011;56185;48.526;9.044;2022-12-29T11:47:50;3.90;;;1.60;;
69083;SDS011;56185;48.526;9.044;2022-12-29T11:50:20;4.90;;;1.95;;
69083;SDS011;56185;48.526;9.044;2022-12-29T11:52:56;3.50;;;2.10;;
69083;SDS011;56185;48.526;9.044;2022-12-29T11:55:25;4.07;;;2.17;;
69083;SDS011;56185;48.526;9.044;2022-12-29T11:57:51;3.22;;;1.83;;
69083;SDS011;56185;48.526;9.044;2022-12-29T12:00:21;2.53;;;1.73;;
69083;SDS011;56185;48.526;9.044;2022-12-29T12:05:24;3.78;;;1.80;;
69083;SDS011;56185;48.526;9.044;2022-12-29T12:08:13;3.78;;;2.05;;
69083;SDS011;56185;48.526;9.044;2022-12-29T12:10:43;2.92;;;1.50;;
69083;SDS011;56185;48.526;9.044;2022-12-29T12:13:16;2.75;;;1.85;;
69083;SDS011;56185;48.526;9.044;2022-12-29T12:15:50;2.88;;;1.80;;
69083;SDS011;56185;48.526;9.044;2022-12-29T12:18:41;2.90;;;1.70;;
69083;SDS011;56185;48.526;9.044;2022-12-29T12:32:25;4.22;;;2.08;;
69083;SDS011;56185;48.526;9.044;2022-12-29T12:34:54;3.22;;;1.88;;
69083;SDS011;56185;48.526;9.044;2022-12-29T12:40:35;6.20;;;2.10;;
69083;SDS011;56185;48.526;9.044;2022-12-29T12:49:13;4.97;;;2.03;;
69083;SDS011;56185;48.526;9.044;2022-12-29T13:00:32;7.43;;;1.80;;
69083;SDS011;56185;48.526;9.044;2022-12-29T13:03:17;2.83;;;1.80;;
69083;SDS011;56185;48.526;9.044;2022-12-29T13:08:54;6.03;;;2.22;;
69083;SDS011;56185;48.526;9.044;2022-12-29T13:27:33;3.92;;;2.03;;
69083;SDS011;56185;48.526;9.044;2022-12-29T13:30:26;4.10;;;2.00;;
69083;SDS011;56185;48.526;9.044;2022-12-29T13:35:57;4.75;;;2.13;;
69083;SDS011;56185;48.526;9.044;2022-12-29T13:38:38;2.70;;;1.95;;
69083;SDS011;56185;48.526;9.044;2022-12-29T13:41:09;3.70;;;1.92;;
69083;SDS011;56185;48.526;9.044;2022-12-29T13:43:40;3.03;;;1.90;;
69083;SDS011;56185;48.526;9.044;2022-12-29T13:46:13;3.67;;;1.80;;
69083;SDS011;56185;48.526;9.044;2022-12-29T13:48:52;3.13;;;1.80;;
69083;SDS011;56185;48.526;9.044;2022-12-29T13:51:20;4.40;;;1.95;;
69083;SDS011;56185;48.526;9.044;2022-12-29T13:57:26;2.80;;;1.70;;
69083;SDS011;56185;48.526;9.044;2022-12-29T14:02:42;2.38;;;1.70;;
69083;SDS011;56185;48.526;9.044;2022-12-29T14:07:43;2.80;;;1.40;;
69083;SDS011;56185;48.526;9.044;2022-12-29T14:10:32;1.98;;;1.40;;
69083;SDS011;56185;48.526;9.044;2022-12-29T14:13:02;2.22;;;1.40;;
69083;SDS011;56185;48.526;9.044;2022-12-29T14:15:42;5.53;;;1.60;;
69083;SDS011;56185;48.526;9.044;2022-12-29T14:18:22;4.78;;;1.73;;
69083;SDS011;56185;48.526;9.044;2022-12-29T14:20:58;3.35;;;1.77;;
69083;SDS011;56185;48.526;9.044;2022-12-29T14:23:36;3.63;;;1.63;;
69083;SDS011;56185;48.526;9.044;2022-12-29T14:28:30;4.47;;;1.70;;
69083;SDS011;56185;48.526;9.044;2022-12-29T14:30:57;2.30;;;1.70;;
69083;SDS011;56185;48.526;9.044;2022-12-29T14:33:30;4.25;;;1.85;;
69083;SDS011;56185;48.526;9.044;2022-12-29T14:36:17;4.38;;;1.85;;
69083;SDS011;56185;48.526;9.044;2022-12-29T14:38:48;5.13;;;2.10;;
69083;SDS011;56185;48.526;9.044;2022-12-29T14:41:18;4.82;;;2.20;;
69083;SDS011;56185;48.526;9.044;2022-12-29T14:43:52;15.80;;;6.22;;
69083;SDS011;56185;48.526;9.044;2022-12-29T14:46:23;5.45;;;2.80;;
69083;SDS011;56185;48.526;9.044;2022-12-29T14:48:53;7.05;;;2.20;;
69083;SDS011;56185;48.526;9.044;2022-12-29T14:51:29;5.35;;;2.10;;
69083;SDS011;56185;48.526;9.044;2022-12-29T14:53:59;2.90;;;1.90;;
69083;SDS011;56185;48.526;9.044;2022-12-29T14:56:26;4.00;;;1.80;;
69083;SDS011;56185;48.526;9.044;2022-12-29T14:59:01;3.28;;;1.88;;
69083;SDS011;56185;48.526;9.044;2022-12-29T15:01:44;4.03;;;1.77;;
69083;SDS011;56185;48.526;9.044;2022-12-29T15:06:48;3.95;;;1.70;;
69083;SDS011;56185;48.526;9.044;2022-12-29T15:12:05;2.10;;;1.52;;
69083;SDS011;56185;48.526;9.044;2022-12-29T15:14:34;3.72;;;1.70;;
69083;SDS011;56185;48.526;9.044;2022-12-29T15:17:22;3.63;;;1.98;;
69083;SDS011;56185;48.526;9.044;2022-12-29T15:19:48;3.55;;;1.83;;
69083;SDS011;56185;48.526;9.044;2022-12-29T15:22:13;3.03;;;1.50;;
69083;SDS011;56185;48.526;9.044;2022-12-29T15:24:41;2.75;;;1.60;;
69083;SDS011;56185;48.526;9.044;2022-12-29T15:27:10;4.22;;;1.70;;
69083;SDS011;56185;48.526;9.044;2022-12-29T15:29:39;3.42;;;2.15;;
69083;SDS011;56185;48.526;9.044;2022-12-29T15:32:17;3.35;;;1.88;;
69083;SDS011;56185;48.526;9.044;2022-12-29T15:34:46;3.80;;;2.20;;
69083;SDS011;56185;48.526;9.044;2022-12-29T15:37:17;4.65;;;1.95;;
69083;SDS011;56185;48.526;9.044;2022-12-29T15:39:44;4.95;;;2.40;;
69083;SDS011;56185;48.526;9.044;2022-12-29T15:44:46;3.92;;;2.33;;
69083;SDS011;56185;48.526;9.044;2022-12-29T15:47:13;4.22;;;2.17;;
69083;SDS011;56185;48.526;9.044;2022-12-29T15:49:42;4.97;;;1.80;;
69083;SDS011;56185;48.526;9.044;2022-12-29T15:52:09;5.13;;;1.80;;
69083;SDS011;56185;48.526;9.044;2022-12-29T15:54:35;3.78;;;1.83;;
69083;SDS011;56185;48.526;9.044;2022-12-29T15:57:01;2.50;;;1.80;;
69083;SDS011;56185;48.526;9.044;2022-12-29T15:59:31;3.63;;;1.95;;
69083;SDS011;56185;48.526;9.044;2022-12-29T16:01:58;3.47;;;1.80;;
69083;SDS011;56185;48.526;9.044;2022-12-29T16:04:25;2.55;;;1.90;;
69083;SDS011;56185;48.526;9.044;2022-12-29T16:06:58;4.18;;;2.03;;
69083;SDS011;56185;48.526;9.044;2022-12-29T16:12:15;4.05;;;2.65;;
69083;SDS011;56185;48.526;9.044;2022-12-29T16:14:45;6.10;;;3.38;;
69083;SDS011;56185;48.526;9.044;2022-12-29T16:17:32;8.07;;;3.70;;
69083;SDS011;56185;48.526;9.044;2022-12-29T16:20:03;8.00;;;4.63;;
69083;SDS011;56185;48.526;9.044;2022-12-29T16:22:39;29.77;;;10.93;;
69083;SDS011;56185;48.526;9.044;2022-12-29T16:25:07;30.20;;;9.93;;
69083;SDS011;56185;48.526;9.044;2022-12-29T16:27:47;20.23;;;7.57;;
69083;SDS011;56185;48.526;9.044;2022-12-29T16:32:49;5.05;;;2.75;;
69083;SDS011;56185;48.526;9.044;2022-12-29T16:35:18;5.18;;;2.80;;
69083;SDS011;56185;48.526;9.044;2022-12-29T16:37:45;4.18;;;2.10;;
69083;SDS011;56185;48.526;9.044;2022-12-29T16:50:25;3.08;;;2.10;;
69083;SDS011;56185;48.526;9.044;2022-12-29T16:52:52;6.05;;;2.88;;
69083;SDS011;56185;48.526;9.044;2022-12-29T16:55:17;6.47;;;2.00;;
69083;SDS011;56185;48.526;9.044;2022-12-29T16:57:44;3.00;;;1.90;;
69083;SDS011;56185;48.526;9.044;2022-12-29T17:00:22;3.80;;;2.05;;
69083;SDS011;56185;48.526;9.044;2022-12-29T17:02:50;3.38;;;1.88;;
69083;SDS011;56185;48.526;9.044;2022-12-29T17:05:19;3.33;;;1.77;;
69083;SDS011;56185;48.526;9.044;2022-12-29T17:07:44;3.85;;;1.90;;
69083;SDS011;56185;48.526;9.044;2022-12-29T17:10:11;3.35;;;1.60;;
69083;SDS011;56185;48.526;9.044;2022-12-29T17:12:36;3.30;;;1.70;;
69083;SDS011;56185;48.526;9.044;2022-12-29T17:15:03;2.70;;;1.80;;
69083;SDS011;56185;48.526;9.044;2022-12-29T17:17:34;3.33;;;2.03;;
69083;SDS011;56185;48.526;9.044;2022-12-29T17:20:21;3.97;;;2.00;;